Aérodrome :
LOGIN :

S'inscrire | Disclaimer

   EN    FR    IT 

 










Légende :    VFR   VFR Marginal   IFR   IFR Intensif   IFR Très Intensif
Visi : 
Plafond : 
>= 8 km
>= 3000ft
5 à 8 km
1000 à 3000 ft
1500m à 5 km
500 à 1000 ft
800 à 1500m
200 à 500 ft
< 800m
< 200 ft
Symboles :   Orages  Brouillard  Fortes neiges  Fortes précipitations  Vent > 20 kt
SIGMETs :   Divers  Orages  Givrage  Turbulence  Onde Orograph.  Cendres Volcan.






- Altitude de l'aérodrome : 306 ft
- Code IATA : EMA


EGNX - Nottingham East Midlands

DERNIER METAR :
  • 141750Z 05014KT 9000 RA SCT004 BKN044 10/10 Q1003

METARs EXPIRÉS :
  • 141720Z 03009KT 9000 RA FEW004 BKN038 10/10 Q1004
  • 141650Z 03010KT 8000 RA FEW005 SCT027 BKN038 10/10 Q1004
  • 141550Z 04006KT 7000 RA FEW009 BKN038 10/09 Q1005
  • 141520Z 05006KT 9000 -RA SCT009 BKN021 10/10 Q1005 RERA

TAF TAF EGNX
Valide du 14 à 18h jusqu'au 15 à 18h UTC


141701Z 1418/1518 03010KT 9999 SCT025
TEMPO 1418/1515 BKN010
TEMPO 1418/1422 5000 +RA +SHRA
PROB40 1418/1509 4000 -RADZ BR BKN005
BECMG 1421/1424 29005KT
ATIS : +44 1332 852 852 (ext 3201)



MET'MAP, la Météo Aéronautique d'un coup d'oeil ! - Copyright ORBIFLY Décembre 2007 - Disclaimer

ORBIFLY MET'MAP TEAM :

Programmation & Développement : Alexandra Zaïnal
Conception & Développement : Baudouin d'Aumeries
Co-Programmation & Développement : Marc-Olivier Méhu
Soutien technique & logistique : Manuel Goepfert

Contact : metmap@orbifly.com




SOURCES & CREDITS :

   NOAA